Flight Track Log - Related Links

Times and Time Zones

All times are in EDT time to prevent confusion due to time zone crossing. See the ASQ4492 flight status page for this flight to view local times or setup timezone preferences in your user account.

Time Position Orientation Groundspeed Altitude Reporting Facility
EDT Latitude Longitude Course Direction KTS MPH feet Rate Location/Type
Thu 10:28:00 PM 29.9833 -94.8326 90° East  Level FlightAware Approximate
Thu 10:29:00 PM 29.9834 -94.7074 90° East  Level FlightAware Approximate
Thu 10:30:00 PM 29.9833 -94.5822 90° East  Level FlightAware Approximate
Thu 10:31:00 PM 29.9834 -94.4570 90° East  Level FlightAware Approximate
Thu 10:32:00 PM 29.9833 -94.3318 90° East  Level FlightAware Approximate
Thu 10:33:00 PM 30.0016 -94.2091 77° East  Level FlightAware Approximate
Thu 10:34:00 PM 30.0203 -94.0860 85° East  Level FlightAware Approximate
Thu 10:35:00 PM 30.0299 -93.9613 85° East  Level FlightAware Approximate
Thu 10:36:00 PM 30.0458 -93.8378 77° East  Level FlightAware Approximate
Thu 10:37:00 PM 30.0622 -93.7141 82° East  Level FlightAware Approximate
Thu 10:38:00 PM 30.0768 -93.5899 82° East  Level FlightAware Approximate
Thu 10:39:00 PM 30.0913 -93.4657 82° East  Level FlightAware Approximate
Thu 10:40:00 PM 30.1057 -93.3415 82° East  Level FlightAware Approximate
Thu 10:41:00 PM 30.1200 -93.2172 82° East  Level FlightAware Approximate
Thu 10:42:00 PM 30.1346 -93.0930 78° East  Level FlightAware Approximate
Thu 10:43:00 PM 30.1563 -92.9702 78° East  Level FlightAware Approximate
Thu 10:44:00 PM 30.1780 -92.8473 78° East  Level FlightAware Approximate
Thu 10:45:00 PM 30.2044 -92.7257 75° East  Level FlightAware Approximate
Thu 10:46:00 PM 30.2323 -92.6044 75° East  Level FlightAware Approximate
Thu 10:47:00 PM 30.2532 -92.4812 79° East  Level FlightAware Approximate
Thu 10:48:00 PM 30.2747 -92.3582 77° East  Level FlightAware Approximate
Thu 10:49:00 PM 30.2981 -92.2356 77° East  Level FlightAware Approximate
Thu 10:50:00 PM 30.3214 -92.1130 78° East  Level FlightAware Approximate
Thu 10:51:00 PM 30.3413 -91.9898 78° East  Level FlightAware Approximate
Thu 10:52:00 PM 30.3636 -91.8668 78° East  Level FlightAware Approximate
Thu 10:53:00 PM 30.3928 -91.7458 74° East  Level FlightAware Approximate
Thu 10:54:00 PM 30.4167 -91.6240 90° East  Level FlightAware Approximate
Thu 10:55:00 PM 30.4348 -91.5005 78° East  Level FlightAware Approximate
Thu 10:56:00 PM 30.4597 -91.3781 74° East  Level FlightAware Approximate
Thu 10:57:00 PM 30.4868 -91.2597 60° Northeast  Level FlightAware Approximate
Thu 10:58:00 PM 30.5156 -91.1397 79° East  Level FlightAware Approximate
Thu 10:59:00 PM 30.5167 -91.1333 79° East  Level FlightAware Approximate
Thu 11:00:00 PM 30.5329 -91.1499 79° East  Level Estimated
Thu 11:01:00 PM 30.5329 -91.1499 79° East  Level Estimated
Thu 11:02:00 PM 30.5329 -91.1499 79° East  Level Estimated

Login

Don't have an account? Register now (free) for customized features, flight alerts, and more!